sensor_id;sensor_type;location;lat;lon;timestamp;P1;durP1;ratioP1;P2;durP2;ratioP2
78960;SDS011;68362;45.970;12.646;2023-07-13T00:00:34;9.43;;;3.88;;
78960;SDS011;68362;45.970;12.646;2023-07-13T00:01:57;8.80;;;3.90;;
78960;SDS011;68362;45.970;12.646;2023-07-13T00:03:00;9.02;;;3.17;;
78960;SDS011;68362;45.970;12.646;2023-07-13T00:04:02;8.60;;;3.20;;
78960;SDS011;68362;45.970;12.646;2023-07-13T00:15:34;4.50;;;2.17;;
78960;SDS011;68362;45.970;12.646;2023-07-13T00:16:38;4.18;;;1.75;;
78960;SDS011;68362;45.970;12.646;2023-07-13T00:17:42;3.45;;;1.63;;
78960;SDS011;68362;45.970;12.646;2023-07-13T00:18:47;4.15;;;1.70;;
78960;SDS011;68362;45.970;12.646;2023-07-13T00:19:49;5.03;;;2.03;;
78960;SDS011;68362;45.970;12.646;2023-07-13T00:20:52;4.53;;;1.40;;
78960;SDS011;68362;45.970;12.646;2023-07-13T00:21:54;3.70;;;1.40;;
78960;SDS011;68362;45.970;12.646;2023-07-13T00:22:57;3.50;;;1.65;;
78960;SDS011;68362;45.970;12.646;2023-07-13T00:23:59;3.15;;;1.65;;
78960;SDS011;68362;45.970;12.646;2023-07-13T00:25:03;3.00;;;1.52;;
78960;SDS011;68362;45.970;12.646;2023-07-13T00:26:06;5.78;;;2.92;;
78960;SDS011;68362;45.970;12.646;2023-07-13T00:27:11;4.28;;;1.50;;
78960;SDS011;68362;45.970;12.646;2023-07-13T00:28:13;3.15;;;0.98;;
78960;SDS011;68362;45.970;12.646;2023-07-13T00:29:16;7.40;;;1.40;;
78960;SDS011;68362;45.970;12.646;2023-07-13T00:30:18;5.47;;;1.65;;
78960;SDS011;68362;45.970;12.646;2023-07-13T00:31:20;4.85;;;1.63;;
78960;SDS011;68362;45.970;12.646;2023-07-13T00:32:23;3.42;;;1.73;;
78960;SDS011;68362;45.970;12.646;2023-07-13T00:33:29;3.95;;;1.33;;
78960;SDS011;68362;45.970;12.646;2023-07-13T00:34:32;2.47;;;1.52;;
78960;SDS011;68362;45.970;12.646;2023-07-13T00:35:34;2.67;;;1.33;;
78960;SDS011;68362;45.970;12.646;2023-07-13T00:36:36;6.60;;;1.35;;
78960;SDS011;68362;45.970;12.646;2023-07-13T00:37:39;2.85;;;1.00;;
78960;SDS011;68362;45.970;12.646;2023-07-13T00:38:41;2.05;;;1.38;;
78960;SDS011;68362;45.970;12.646;2023-07-13T00:39:43;3.13;;;1.30;;
78960;SDS011;68362;45.970;12.646;2023-07-13T00:40:45;5.97;;;1.38;;
78960;SDS011;68362;45.970;12.646;2023-07-13T00:41:48;4.65;;;1.58;;
78960;SDS011;68362;45.970;12.646;2023-07-13T00:42:52;5.32;;;1.45;;
78960;SDS011;68362;45.970;12.646;2023-07-13T00:43:54;2.08;;;1.33;;
78960;SDS011;68362;45.970;12.646;2023-07-13T00:45:03;4.35;;;1.63;;
78960;SDS011;68362;45.970;12.646;2023-07-13T00:46:20;6.78;;;1.42;;
78960;SDS011;68362;45.970;12.646;2023-07-13T00:47:31;5.25;;;1.83;;
78960;SDS011;68362;45.970;12.646;2023-07-13T00:48:33;2.25;;;1.42;;
78960;SDS011;68362;45.970;12.646;2023-07-13T00:49:38;3.80;;;1.73;;
78960;SDS011;68362;45.970;12.646;2023-07-13T00:50:41;7.03;;;1.73;;
78960;SDS011;68362;45.970;12.646;2023-07-13T00:52:50;6.70;;;1.75;;
78960;SDS011;68362;45.970;12.646;2023-07-13T00:53:56;4.65;;;1.50;;
78960;SDS011;68362;45.970;12.646;2023-07-13T00:55:00;5.75;;;2.53;;
78960;SDS011;68362;45.970;12.646;2023-07-13T00:56:03;3.55;;;1.55;;
78960;SDS011;68362;45.970;12.646;2023-07-13T00:57:07;5.38;;;1.50;;
78960;SDS011;68362;45.970;12.646;2023-07-13T00:58:12;4.97;;;2.08;;
78960;SDS011;68362;45.970;12.646;2023-07-13T01:00:18;4.60;;;1.60;;
78960;SDS011;68362;45.970;12.646;2023-07-13T01:01:22;4.10;;;1.95;;
78960;SDS011;68362;45.970;12.646;2023-07-13T01:02:25;3.67;;;1.70;;
78960;SDS011;68362;45.970;12.646;2023-07-13T01:03:30;5.65;;;1.80;;
78960;SDS011;68362;45.970;12.646;2023-07-13T01:04:32;7.03;;;2.25;;
78960;SDS011;68362;45.970;12.646;2023-07-13T01:05:35;4.25;;;2.95;;
78960;SDS011;68362;45.970;12.646;2023-07-13T01:06:38;8.90;;;2.78;;
78960;SDS011;68362;45.970;12.646;2023-07-13T01:07:42;8.57;;;3.17;;
78960;SDS011;68362;45.970;12.646;2023-07-13T01:08:45;14.38;;;3.75;;
78960;SDS011;68362;45.970;12.646;2023-07-13T01:09:48;7.25;;;2.78;;
78960;SDS011;68362;45.970;12.646;2023-07-13T01:10:51;10.85;;;3.10;;
78960;SDS011;68362;45.970;12.646;2023-07-13T01:11:54;5.72;;;2.35;;
78960;SDS011;68362;45.970;12.646;2023-07-13T01:12:56;4.28;;;2.35;;
78960;SDS011;68362;45.970;12.646;2023-07-13T01:13:58;6.55;;;2.15;;
78960;SDS011;68362;45.970;12.646;2023-07-13T01:15:01;4.65;;;2.72;;
78960;SDS011;68362;45.970;12.646;2023-07-13T01:16:05;5.57;;;2.33;;
78960;SDS011;68362;45.970;12.646;2023-07-13T01:17:16;5.35;;;2.05;;
78960;SDS011;68362;45.970;12.646;2023-07-13T01:18:20;5.68;;;2.00;;
78960;SDS011;68362;45.970;12.646;2023-07-13T01:20:39;6.03;;;2.35;;
78960;SDS011;68362;45.970;12.646;2023-07-13T01:21:41;3.70;;;2.20;;
78960;SDS011;68362;45.970;12.646;2023-07-13T01:23:46;4.68;;;2.63;;
78960;SDS011;68362;45.970;12.646;2023-07-13T01:24:48;3.28;;;1.80;;
78960;SDS011;68362;45.970;12.646;2023-07-13T01:25:51;5.95;;;1.88;;
78960;SDS011;68362;45.970;12.646;2023-07-13T01:26:54;6.82;;;2.40;;
78960;SDS011;68362;45.970;12.646;2023-07-13T01:27:56;4.00;;;2.13;;
78960;SDS011;68362;45.970;12.646;2023-07-13T01:28:59;7.97;;;2.70;;
78960;SDS011;68362;45.970;12.646;2023-07-13T01:30:01;7.32;;;2.13;;
78960;SDS011;68362;45.970;12.646;2023-07-13T01:31:05;5.10;;;2.28;;
78960;SDS011;68362;45.970;12.646;2023-07-13T01:32:11;6.15;;;2.53;;
78960;SDS011;68362;45.970;12.646;2023-07-13T01:33:16;4.72;;;2.00;;
78960;SDS011;68362;45.970;12.646;2023-07-13T01:34:19;5.38;;;2.40;;
78960;SDS011;68362;45.970;12.646;2023-07-13T01:35:21;4.72;;;2.40;;
78960;SDS011;68362;45.970;12.646;2023-07-13T01:36:24;3.90;;;2.55;;
78960;SDS011;68362;45.970;12.646;2023-07-13T01:38:28;8.90;;;2.75;;
78960;SDS011;68362;45.970;12.646;2023-07-13T01:39:30;7.43;;;2.70;;
78960;SDS011;68362;45.970;12.646;2023-07-13T01:40:33;7.18;;;2.67;;
78960;SDS011;68362;45.970;12.646;2023-07-13T01:41:37;9.15;;;2.58;;
78960;SDS011;68362;45.970;12.646;2023-07-13T01:42:39;8.90;;;3.00;;
78960;SDS011;68362;45.970;12.646;2023-07-13T01:43:42;8.70;;;2.97;;
78960;SDS011;68362;45.970;12.646;2023-07-13T01:44:44;6.57;;;2.72;;
78960;SDS011;68362;45.970;12.646;2023-07-13T01:45:46;6.05;;;2.60;;
78960;SDS011;68362;45.970;12.646;2023-07-13T01:46:49;6.43;;;2.67;;
78960;SDS011;68362;45.970;12.646;2023-07-13T01:47:51;5.10;;;2.70;;
78960;SDS011;68362;45.970;12.646;2023-07-13T01:48:53;5.68;;;2.78;;
78960;SDS011;68362;45.970;12.646;2023-07-13T01:49:55;6.03;;;2.50;;
78960;SDS011;68362;45.970;12.646;2023-07-13T01:50:57;7.40;;;2.67;;
78960;SDS011;68362;45.970;12.646;2023-07-13T01:51:59;5.05;;;2.28;;
78960;SDS011;68362;45.970;12.646;2023-07-13T01:53:01;4.60;;;2.90;;
78960;SDS011;68362;45.970;12.646;2023-07-13T01:54:04;4.82;;;2.55;;
78960;SDS011;68362;45.970;12.646;2023-07-13T01:55:07;9.13;;;2.40;;
78960;SDS011;68362;45.970;12.646;2023-07-13T01:56:09;5.63;;;2.38;;
78960;SDS011;68362;45.970;12.646;2023-07-13T01:57:12;6.57;;;2.72;;
78960;SDS011;68362;45.970;12.646;2023-07-13T01:58:14;7.68;;;3.40;;
78960;SDS011;68362;45.970;12.646;2023-07-13T01:59:16;6.63;;;3.25;;
78960;SDS011;68362;45.970;12.646;2023-07-13T02:00:18;8.98;;;2.65;;
78960;SDS011;68362;45.970;12.646;2023-07-13T02:01:20;10.45;;;2.95;;
78960;SDS011;68362;45.970;12.646;2023-07-13T02:02:22;6.32;;;2.40;;
78960;SDS011;68362;45.970;12.646;2023-07-13T02:03:25;5.70;;;2.33;;
78960;SDS011;68362;45.970;12.646;2023-07-13T02:04:27;4.85;;;2.35;;
78960;SDS011;68362;45.970;12.646;2023-07-13T02:05:29;7.68;;;2.90;;
78960;SDS011;68362;45.970;12.646;2023-07-13T02:06:31;4.22;;;2.05;;
78960;SDS011;68362;45.970;12.646;2023-07-13T02:07:34;7.80;;;4.47;;
78960;SDS011;68362;45.970;12.646;2023-07-13T02:08:36;5.50;;;2.13;;
78960;SDS011;68362;45.970;12.646;2023-07-13T02:09:39;5.20;;;2.38;;
78960;SDS011;68362;45.970;12.646;2023-07-13T02:10:40;6.78;;;2.88;;
78960;SDS011;68362;45.970;12.646;2023-07-13T02:11:43;4.20;;;2.47;;
78960;SDS011;68362;45.970;12.646;2023-07-13T02:12:45;3.72;;;2.05;;
78960;SDS011;68362;45.970;12.646;2023-07-13T02:13:47;4.07;;;2.45;;
78960;SDS011;68362;45.970;12.646;2023-07-13T02:14:50;4.97;;;1.98;;
78960;SDS011;68362;45.970;12.646;2023-07-13T02:15:52;6.55;;;2.78;;
78960;SDS011;68362;45.970;12.646;2023-07-13T02:16:54;3.63;;;2.42;;
78960;SDS011;68362;45.970;12.646;2023-07-13T02:17:56;6.38;;;2.65;;
78960;SDS011;68362;45.970;12.646;2023-07-13T02:19:00;8.05;;;2.28;;
78960;SDS011;68362;45.970;12.646;2023-07-13T02:20:03;3.78;;;1.60;;
78960;SDS011;68362;45.970;12.646;2023-07-13T02:21:06;6.13;;;2.40;;
78960;SDS011;68362;45.970;12.646;2023-07-13T02:22:09;4.72;;;2.22;;
78960;SDS011;68362;45.970;12.646;2023-07-13T02:23:11;7.10;;;2.55;;
78960;SDS011;68362;45.970;12.646;2023-07-13T02:24:13;5.65;;;2.05;;
78960;SDS011;68362;45.970;12.646;2023-07-13T02:25:19;4.70;;;2.10;;
78960;SDS011;68362;45.970;12.646;2023-07-13T02:26:21;5.28;;;3.00;;
78960;SDS011;68362;45.970;12.646;2023-07-13T02:27:23;4.35;;;2.10;;
78960;SDS011;68362;45.970;12.646;2023-07-13T02:28:26;6.00;;;2.60;;
78960;SDS011;68362;45.970;12.646;2023-07-13T02:29:28;6.07;;;2.63;;
78960;SDS011;68362;45.970;12.646;2023-07-13T02:30:30;6.07;;;2.30;;
78960;SDS011;68362;45.970;12.646;2023-07-13T02:31:32;13.25;;;2.40;;
78960;SDS011;68362;45.970;12.646;2023-07-13T02:32:35;6.25;;;2.40;;
78960;SDS011;68362;45.970;12.646;2023-07-13T02:33:37;5.95;;;2.45;;
78960;SDS011;68362;45.970;12.646;2023-07-13T02:34:40;3.75;;;1.95;;
78960;SDS011;68362;45.970;12.646;2023-07-13T02:35:42;6.97;;;2.28;;
78960;SDS011;68362;45.970;12.646;2023-07-13T02:36:45;3.90;;;1.63;;
78960;SDS011;68362;45.970;12.646;2023-07-13T02:37:47;4.22;;;1.50;;
78960;SDS011;68362;45.970;12.646;2023-07-13T02:38:49;4.47;;;2.17;;
78960;SDS011;68362;45.970;12.646;2023-07-13T02:39:52;3.75;;;1.83;;
78960;SDS011;68362;45.970;12.646;2023-07-13T02:40:54;6.05;;;2.22;;
78960;SDS011;68362;45.970;12.646;2023-07-13T02:41:56;6.20;;;2.58;;
78960;SDS011;68362;45.970;12.646;2023-07-13T02:42:58;3.85;;;1.90;;
78960;SDS011;68362;45.970;12.646;2023-07-13T02:44:02;10.52;;;2.10;;
78960;SDS011;68362;45.970;12.646;2023-07-13T02:45:06;3.53;;;1.92;;
78960;SDS011;68362;45.970;12.646;2023-07-13T02:46:09;7.15;;;2.33;;
78960;SDS011;68362;45.970;12.646;2023-07-13T02:47:12;2.95;;;1.83;;
78960;SDS011;68362;45.970;12.646;2023-07-13T02:48:14;3.60;;;1.70;;
78960;SDS011;68362;45.970;12.646;2023-07-13T02:49:17;7.00;;;2.10;;
78960;SDS011;68362;45.970;12.646;2023-07-13T02:50:19;3.85;;;1.92;;
78960;SDS011;68362;45.970;12.646;2023-07-13T02:51:21;4.60;;;2.20;;
78960;SDS011;68362;45.970;12.646;2023-07-13T02:52:24;5.00;;;2.50;;
78960;SDS011;68362;45.970;12.646;2023-07-13T02:53:26;5.00;;;2.25;;
78960;SDS011;68362;45.970;12.646;2023-07-13T02:54:28;4.80;;;2.67;;
78960;SDS011;68362;45.970;12.646;2023-07-13T02:55:30;4.28;;;2.22;;
78960;SDS011;68362;45.970;12.646;2023-07-13T02:56:32;5.07;;;2.22;;
78960;SDS011;68362;45.970;12.646;2023-07-13T02:57:35;5.47;;;2.40;;
78960;SDS011;68362;45.970;12.646;2023-07-13T02:58:37;4.05;;;1.88;;
78960;SDS011;68362;45.970;12.646;2023-07-13T02:59:40;7.10;;;2.50;;
78960;SDS011;68362;45.970;12.646;2023-07-13T03:00:43;4.95;;;2.00;;
78960;SDS011;68362;45.970;12.646;2023-07-13T03:01:48;4.80;;;2.35;;
78960;SDS011;68362;45.970;12.646;2023-07-13T03:02:50;3.33;;;1.95;;
78960;SDS011;68362;45.970;12.646;2023-07-13T03:03:52;8.35;;;2.65;;
78960;SDS011;68362;45.970;12.646;2023-07-13T03:05:58;7.35;;;2.22;;
78960;SDS011;68362;45.970;12.646;2023-07-13T03:07:02;5.50;;;2.40;;
78960;SDS011;68362;45.970;12.646;2023-07-13T03:08:05;5.70;;;1.95;;
78960;SDS011;68362;45.970;12.646;2023-07-13T03:10:10;5.00;;;3.03;;
78960;SDS011;68362;45.970;12.646;2023-07-13T03:11:16;6.03;;;2.30;;
78960;SDS011;68362;45.970;12.646;2023-07-13T03:12:20;3.90;;;2.25;;
78960;SDS011;68362;45.970;12.646;2023-07-13T03:13:22;3.38;;;1.90;;
78960;SDS011;68362;45.970;12.646;2023-07-13T03:14:24;4.72;;;2.05;;
78960;SDS011;68362;45.970;12.646;2023-07-13T03:15:27;5.18;;;2.10;;
78960;SDS011;68362;45.970;12.646;2023-07-13T03:16:29;5.88;;;2.35;;
78960;SDS011;68362;45.970;12.646;2023-07-13T03:17:31;5.20;;;2.20;;
78960;SDS011;68362;45.970;12.646;2023-07-13T03:18:33;4.68;;;2.17;;
78960;SDS011;68362;45.970;12.646;2023-07-13T03:19:37;7.97;;;2.72;;
78960;SDS011;68362;45.970;12.646;2023-07-13T03:20:39;6.20;;;2.28;;
78960;SDS011;68362;45.970;12.646;2023-07-13T03:21:41;5.15;;;2.03;;
78960;SDS011;68362;45.970;12.646;2023-07-13T03:22:44;5.32;;;2.40;;
78960;SDS011;68362;45.970;12.646;2023-07-13T03:23:46;4.57;;;1.83;;
78960;SDS011;68362;45.970;12.646;2023-07-13T03:24:49;3.42;;;2.08;;
78960;SDS011;68362;45.970;12.646;2023-07-13T03:26:00;5.50;;;2.70;;
78960;SDS011;68362;45.970;12.646;2023-07-13T03:27:07;5.35;;;1.75;;
78960;SDS011;68362;45.970;12.646;2023-07-13T03:28:09;5.03;;;2.05;;
78960;SDS011;68362;45.970;12.646;2023-07-13T03:29:11;3.72;;;1.55;;
78960;SDS011;68362;45.970;12.646;2023-07-13T03:30:13;3.00;;;1.85;;
78960;SDS011;68362;45.970;12.646;2023-07-13T03:31:17;6.60;;;2.13;;
78960;SDS011;68362;45.970;12.646;2023-07-13T03:32:21;4.75;;;2.63;;
78960;SDS011;68362;45.970;12.646;2023-07-13T03:33:23;5.57;;;2.80;;
78960;SDS011;68362;45.970;12.646;2023-07-13T03:34:25;3.55;;;2.00;;
78960;SDS011;68362;45.970;12.646;2023-07-13T03:35:28;4.18;;;2.42;;
78960;SDS011;68362;45.970;12.646;2023-07-13T03:36:30;3.60;;;1.88;;
78960;SDS011;68362;45.970;12.646;2023-07-13T03:37:34;5.38;;;2.20;;
78960;SDS011;68362;45.970;12.646;2023-07-13T03:38:36;5.32;;;1.90;;
78960;SDS011;68362;45.970;12.646;2023-07-13T03:39:38;5.97;;;2.15;;
78960;SDS011;68362;45.970;12.646;2023-07-13T03:40:40;5.05;;;2.08;;
78960;SDS011;68362;45.970;12.646;2023-07-13T03:41:43;4.07;;;2.25;;
78960;SDS011;68362;45.970;12.646;2023-07-13T03:42:45;4.80;;;2.35;;
78960;SDS011;68362;45.970;12.646;2023-07-13T03:43:48;9.13;;;2.25;;
78960;SDS011;68362;45.970;12.646;2023-07-13T03:44:50;4.18;;;2.17;;
78960;SDS011;68362;45.970;12.646;2023-07-13T03:45:54;3.83;;;2.10;;
78960;SDS011;68362;45.970;12.646;2023-07-13T03:46:56;4.63;;;2.17;;
78960;SDS011;68362;45.970;12.646;2023-07-13T03:47:59;3.97;;;1.70;;
78960;SDS011;68362;45.970;12.646;2023-07-13T03:49:01;3.63;;;1.95;;
78960;SDS011;68362;45.970;12.646;2023-07-13T03:50:03;4.38;;;2.22;;
78960;SDS011;68362;45.970;12.646;2023-07-13T03:51:06;3.42;;;1.63;;
78960;SDS011;68362;45.970;12.646;2023-07-13T03:52:08;4.47;;;1.92;;
78960;SDS011;68362;45.970;12.646;2023-07-13T03:53:10;4.18;;;2.05;;
78960;SDS011;68362;45.970;12.646;2023-07-13T03:54:12;2.80;;;1.65;;
78960;SDS011;68362;45.970;12.646;2023-07-13T03:55:14;6.93;;;1.80;;
78960;SDS011;68362;45.970;12.646;2023-07-13T03:56:17;2.65;;;1.77;;
78960;SDS011;68362;45.970;12.646;2023-07-13T03:57:20;5.38;;;2.92;;
78960;SDS011;68362;45.970;12.646;2023-07-13T03:58:23;5.43;;;1.92;;
78960;SDS011;68362;45.970;12.646;2023-07-13T03:59:25;3.72;;;1.38;;
78960;SDS011;68362;45.970;12.646;2023-07-13T04:00:28;4.25;;;1.80;;
78960;SDS011;68362;45.970;12.646;2023-07-13T04:01:30;5.70;;;1.83;;
78960;SDS011;68362;45.970;12.646;2023-07-13T04:02:32;4.85;;;2.28;;
78960;SDS011;68362;45.970;12.646;2023-07-13T04:03:35;4.65;;;1.70;;
78960;SDS011;68362;45.970;12.646;2023-07-13T04:04:38;2.92;;;1.77;;
78960;SDS011;68362;45.970;12.646;2023-07-13T04:05:42;6.68;;;2.15;;
78960;SDS011;68362;45.970;12.646;2023-07-13T04:06:44;5.10;;;1.63;;
78960;SDS011;68362;45.970;12.646;2023-07-13T04:07:46;2.53;;;1.50;;
78960;SDS011;68362;45.970;12.646;2023-07-13T04:08:49;6.05;;;1.73;;
78960;SDS011;68362;45.970;12.646;2023-07-13T04:09:53;4.82;;;1.92;;
78960;SDS011;68362;45.970;12.646;2023-07-13T04:10:55;2.28;;;1.42;;
78960;SDS011;68362;45.970;12.646;2023-07-13T04:11:58;3.95;;;1.48;;
78960;SDS011;68362;45.970;12.646;2023-07-13T04:13:00;5.03;;;1.92;;
78960;SDS011;68362;45.970;12.646;2023-07-13T04:14:02;3.55;;;1.80;;
78960;SDS011;68362;45.970;12.646;2023-07-13T04:15:04;4.13;;;1.73;;
78960;SDS011;68362;45.970;12.646;2023-07-13T04:16:06;3.63;;;1.58;;
78960;SDS011;68362;45.970;12.646;2023-07-13T04:17:09;3.53;;;2.15;;
78960;SDS011;68362;45.970;12.646;2023-07-13T04:18:11;4.97;;;1.40;;
78960;SDS011;68362;45.970;12.646;2023-07-13T04:19:13;4.50;;;1.50;;
78960;SDS011;68362;45.970;12.646;2023-07-13T04:20:15;3.65;;;1.52;;
78960;SDS011;68362;45.970;12.646;2023-07-13T04:21:18;2.53;;;1.23;;
78960;SDS011;68362;45.970;12.646;2023-07-13T04:22:20;3.80;;;1.52;;
78960;SDS011;68362;45.970;12.646;2023-07-13T04:23:22;2.97;;;1.40;;
78960;SDS011;68362;45.970;12.646;2023-07-13T04:24:24;5.35;;;1.45;;
78960;SDS011;68362;45.970;12.646;2023-07-13T04:25:27;2.30;;;1.30;;
78960;SDS011;68362;45.970;12.646;2023-07-13T04:26:29;5.50;;;1.45;;
78960;SDS011;68362;45.970;12.646;2023-07-13T04:27:31;3.53;;;1.50;;
78960;SDS011;68362;45.970;12.646;2023-07-13T04:28:34;5.35;;;1.77;;
78960;SDS011;68362;45.970;12.646;2023-07-13T04:30:38;3.38;;;1.30;;
78960;SDS011;68362;45.970;12.646;2023-07-13T04:31:40;1.70;;;0.90;;
78960;SDS011;68362;45.970;12.646;2023-07-13T04:32:43;4.47;;;1.33;;
78960;SDS011;68362;45.970;12.646;2023-07-13T04:33:45;5.40;;;1.20;;
78960;SDS011;68362;45.970;12.646;2023-07-13T04:34:49;2.22;;;1.35;;
78960;SDS011;68362;45.970;12.646;2023-07-13T04:35:56;4.95;;;1.38;;
78960;SDS011;68362;45.970;12.646;2023-07-13T04:36:58;2.03;;;1.02;;
78960;SDS011;68362;45.970;12.646;2023-07-13T04:38:01;2.55;;;1.27;;
78960;SDS011;68362;45.970;12.646;2023-07-13T04:40:06;5.45;;;1.55;;
78960;SDS011;68362;45.970;12.646;2023-07-13T04:41:12;3.42;;;1.60;;
78960;SDS011;68362;45.970;12.646;2023-07-13T04:42:15;6.65;;;1.98;;
78960;SDS011;68362;45.970;12.646;2023-07-13T04:43:18;3.88;;;1.33;;
78960;SDS011;68362;45.970;12.646;2023-07-13T04:44:20;3.80;;;1.50;;
78960;SDS011;68362;45.970;12.646;2023-07-13T04:45:23;6.65;;;1.85;;
78960;SDS011;68362;45.970;12.646;2023-07-13T04:46:26;1.75;;;1.13;;
78960;SDS011;68362;45.970;12.646;2023-07-13T04:47:30;5.35;;;1.73;;
78960;SDS011;68362;45.970;12.646;2023-07-13T04:48:32;5.00;;;1.20;;
78960;SDS011;68362;45.970;12.646;2023-07-13T04:49:35;4.25;;;1.33;;
78960;SDS011;68362;45.970;12.646;2023-07-13T04:50:38;5.57;;;1.40;;
78960;SDS011;68362;45.970;12.646;2023-07-13T04:51:40;2.60;;;1.50;;
78960;SDS011;68362;45.970;12.646;2023-07-13T04:52:42;2.70;;;1.50;;
78960;SDS011;68362;45.970;12.646;2023-07-13T04:53:44;5.60;;;2.25;;
78960;SDS011;68362;45.970;12.646;2023-07-13T04:54:46;4.55;;;1.40;;
78960;SDS011;68362;45.970;12.646;2023-07-13T04:55:48;3.78;;;1.30;;
78960;SDS011;68362;45.970;12.646;2023-07-13T04:56:50;3.35;;;1.30;;
78960;SDS011;68362;45.970;12.646;2023-07-13T04:57:52;3.35;;;1.48;;
78960;SDS011;68362;45.970;12.646;2023-07-13T04:58:55;4.22;;;1.27;;
78960;SDS011;68362;45.970;12.646;2023-07-13T04:59:57;3.53;;;1.40;;
78960;SDS011;68362;45.970;12.646;2023-07-13T05:01:03;2.03;;;1.10;;
78960;SDS011;68362;45.970;12.646;2023-07-13T05:02:07;5.65;;;1.33;;
78960;SDS011;68362;45.970;12.646;2023-07-13T05:03:09;7.20;;;1.50;;
78960;SDS011;68362;45.970;12.646;2023-07-13T05:04:11;2.92;;;1.27;;
78960;SDS011;68362;45.970;12.646;2023-07-13T05:05:14;3.10;;;1.30;;
78960;SDS011;68362;45.970;12.646;2023-07-13T05:06:16;2.85;;;1.50;;
78960;SDS011;68362;45.970;12.646;2023-07-13T05:07:18;1.50;;;0.98;;
78960;SDS011;68362;45.970;12.646;2023-07-13T05:08:20;2.25;;;1.15;;
78960;SDS011;68362;45.970;12.646;2023-07-13T05:09:22;3.17;;;1.15;;
78960;SDS011;68362;45.970;12.646;2023-07-13T05:10:24;2.35;;;1.08;;
78960;SDS011;68362;45.970;12.646;2023-07-13T05:11:26;3.45;;;1.02;;
78960;SDS011;68362;45.970;12.646;2023-07-13T05:12:29;2.25;;;1.20;;
78960;SDS011;68362;45.970;12.646;2023-07-13T05:13:31;4.38;;;1.25;;
78960;SDS011;68362;45.970;12.646;2023-07-13T05:14:34;2.78;;;1.13;;
78960;SDS011;68362;45.970;12.646;2023-07-13T05:15:36;1.90;;;1.08;;
78960;SDS011;68362;45.970;12.646;2023-07-13T05:16:38;3.20;;;1.23;;
78960;SDS011;68362;45.970;12.646;2023-07-13T05:17:40;3.97;;;1.67;;
78960;SDS011;68362;45.970;12.646;2023-07-13T05:18:42;3.67;;;1.63;;
78960;SDS011;68362;45.970;12.646;2023-07-13T05:19:44;2.65;;;1.10;;
78960;SDS011;68362;45.970;12.646;2023-07-13T05:20:46;2.17;;;1.10;;
78960;SDS011;68362;45.970;12.646;2023-07-13T05:21:48;3.17;;;1.30;;
78960;SDS011;68362;45.970;12.646;2023-07-13T05:22:50;3.20;;;1.08;;
78960;SDS011;68362;45.970;12.646;2023-07-13T05:23:53;2.53;;;1.27;;
78960;SDS011;68362;45.970;12.646;2023-07-13T05:24:55;2.30;;;1.13;;
78960;SDS011;68362;45.970;12.646;2023-07-13T05:25:57;4.50;;;1.45;;
78960;SDS011;68362;45.970;12.646;2023-07-13T05:26:59;2.80;;;1.13;;
78960;SDS011;68362;45.970;12.646;2023-07-13T05:28:01;2.47;;;1.15;;
78960;SDS011;68362;45.970;12.646;2023-07-13T05:29:04;4.43;;;1.42;;
78960;SDS011;68362;45.970;12.646;2023-07-13T05:30:06;2.50;;;1.15;;
78960;SDS011;68362;45.970;12.646;2023-07-13T05:31:09;3.53;;;1.58;;
78960;SDS011;68362;45.970;12.646;2023-07-13T05:32:13;3.25;;;1.30;;
78960;SDS011;68362;45.970;12.646;2023-07-13T05:33:15;4.18;;;1.35;;
78960;SDS011;68362;45.970;12.646;2023-07-13T05:34:18;3.22;;;1.10;;
78960;SDS011;68362;45.970;12.646;2023-07-13T05:35:20;2.80;;;1.70;;
78960;SDS011;68362;45.970;12.646;2023-07-13T05:36:22;5.57;;;1.40;;
78960;SDS011;68362;45.970;12.646;2023-07-13T05:37:24;4.10;;;1.10;;
78960;SDS011;68362;45.970;12.646;2023-07-13T05:38:26;2.03;;;1.10;;
78960;SDS011;68362;45.970;12.646;2023-07-13T05:39:29;2.60;;;1.25;;
78960;SDS011;68362;45.970;12.646;2023-07-13T05:40:31;3.55;;;0.90;;
78960;SDS011;68362;45.970;12.646;2023-07-13T05:41:33;3.55;;;1.20;;
78960;SDS011;68362;45.970;12.646;2023-07-13T05:42:36;6.22;;;1.63;;
78960;SDS011;68362;45.970;12.646;2023-07-13T05:43:38;3.13;;;1.05;;
78960;SDS011;68362;45.970;12.646;2023-07-13T05:44:40;7.30;;;1.33;;
78960;SDS011;68362;45.970;12.646;2023-07-13T05:45:42;2.80;;;1.17;;
78960;SDS011;68362;45.970;12.646;2023-07-13T05:46:44;3.53;;;1.20;;
78960;SDS011;68362;45.970;12.646;2023-07-13T05:47:46;2.78;;;0.93;;
78960;SDS011;68362;45.970;12.646;2023-07-13T05:48:49;3.88;;;1.17;;
78960;SDS011;68362;45.970;12.646;2023-07-13T05:49:51;2.78;;;0.90;;
78960;SDS011;68362;45.970;12.646;2023-07-13T05:50:53;2.20;;;0.88;;
78960;SDS011;68362;45.970;12.646;2023-07-13T05:51:55;2.60;;;1.05;;
78960;SDS011;68362;45.970;12.646;2023-07-13T05:52:57;1.40;;;0.90;;
78960;SDS011;68362;45.970;12.646;2023-07-13T05:54:00;1.75;;;0.80;;
78960;SDS011;68362;45.970;12.646;2023-07-13T05:55:02;2.35;;;1.60;;
78960;SDS011;68362;45.970;12.646;2023-07-13T05:57:07;3.22;;;1.20;;
78960;SDS011;68362;45.970;12.646;2023-07-13T05:58:09;9.68;;;1.23;;
78960;SDS011;68362;45.970;12.646;2023-07-13T05:59:13;3.47;;;1.02;;
78960;SDS011;68362;45.970;12.646;2023-07-13T06:00:15;3.50;;;1.20;;
78960;SDS011;68362;45.970;12.646;2023-07-13T06:01:18;2.25;;;1.00;;
78960;SDS011;68362;45.970;12.646;2023-07-13T06:02:22;15.35;;;1.52;;
78960;SDS011;68362;45.970;12.646;2023-07-13T06:03:24;2.65;;;1.05;;
78960;SDS011;68362;45.970;12.646;2023-07-13T06:04:26;3.95;;;1.30;;
78960;SDS011;68362;45.970;12.646;2023-07-13T06:05:29;4.35;;;1.52;;
78960;SDS011;68362;45.970;12.646;2023-07-13T06:06:31;2.75;;;1.40;;
78960;SDS011;68362;45.970;12.646;2023-07-13T06:07:33;2.15;;;0.80;;
78960;SDS011;68362;45.970;12.646;2023-07-13T06:08:35;4.32;;;1.30;;
78960;SDS011;68362;45.970;12.646;2023-07-13T06:09:38;3.00;;;1.17;;
78960;SDS011;68362;45.970;12.646;2023-07-13T06:10:40;4.28;;;1.10;;
78960;SDS011;68362;45.970;12.646;2023-07-13T06:11:42;2.85;;;1.20;;
78960;SDS011;68362;45.970;12.646;2023-07-13T06:12:45;4.05;;;1.38;;
78960;SDS011;68362;45.970;12.646;2023-07-13T06:13:47;7.05;;;1.80;;
78960;SDS011;68362;45.970;12.646;2023-07-13T06:14:49;2.00;;;1.30;;
78960;SDS011;68362;45.970;12.646;2023-07-13T06:15:51;2.65;;;1.23;;
78960;SDS011;68362;45.970;12.646;2023-07-13T06:16:53;2.45;;;1.38;;
78960;SDS011;68362;45.970;12.646;2023-07-13T06:17:56;3.90;;;1.05;;
78960;SDS011;68362;45.970;12.646;2023-07-13T06:18:58;2.40;;;1.50;;
78960;SDS011;68362;45.970;12.646;2023-07-13T06:20:00;2.28;;;1.38;;
78960;SDS011;68362;45.970;12.646;2023-07-13T06:21:11;7.50;;;1.48;;
78960;SDS011;68362;45.970;12.646;2023-07-13T06:22:16;3.78;;;1.75;;
78960;SDS011;68362;45.970;12.646;2023-07-13T06:23:18;5.40;;;1.80;;
78960;SDS011;68362;45.970;12.646;2023-07-13T06:24:21;4.25;;;1.60;;
78960;SDS011;68362;45.970;12.646;2023-07-13T06:25:23;4.28;;;1.77;;
78960;SDS011;68362;45.970;12.646;2023-07-13T06:26:26;4.03;;;1.50;;
78960;SDS011;68362;45.970;12.646;2023-07-13T06:27:28;1.98;;;1.30;;
78960;SDS011;68362;45.970;12.646;2023-07-13T06:28:31;3.72;;;1.88;;
78960;SDS011;68362;45.970;12.646;2023-07-13T06:30:38;2.30;;;0.90;;
78960;SDS011;68362;45.970;12.646;2023-07-13T06:31:41;2.78;;;1.27;;
78960;SDS011;68362;45.970;12.646;2023-07-13T06:32:43;2.97;;;1.50;;
78960;SDS011;68362;45.970;12.646;2023-07-13T06:33:45;3.60;;;1.20;;
78960;SDS011;68362;45.970;12.646;2023-07-13T06:34:48;4.05;;;1.58;;